createdAt,value
2022-12-11T00:02:06.393Z,19.55
2022-12-11T00:04:33.051Z,18.95
2022-12-11T00:06:59.499Z,18.80
2022-12-11T00:09:26.085Z,20.98
2022-12-11T00:11:52.476Z,21.08
2022-12-11T00:14:18.984Z,20.58
2022-12-11T00:16:47.384Z,20.95
2022-12-11T00:19:13.699Z,21.70
2022-12-11T00:21:40.134Z,21.85
2022-12-11T00:24:06.841Z,20.15
2022-12-11T00:26:33.183Z,20.65
2022-12-11T00:28:59.573Z,21.67
2022-12-11T00:31:25.947Z,21.65
2022-12-11T00:33:52.346Z,20.45
2022-12-11T00:36:20.156Z,20.55
2022-12-11T00:38:46.926Z,19.98
2022-12-11T00:41:13.421Z,21.48
2022-12-11T00:43:39.793Z,22.35
2022-12-11T00:46:06.545Z,20.50
2022-12-11T00:48:33.072Z,21.63
2022-12-11T00:50:59.803Z,21.13
2022-12-11T00:53:26.326Z,21.45
2022-12-11T00:55:52.840Z,23.35
2022-12-11T00:58:19.570Z,22.48
2022-12-11T01:00:45.999Z,22.70
2022-12-11T01:03:13.363Z,22.15
2022-12-11T01:05:39.817Z,20.10
2022-12-11T01:08:07.281Z,21.42
2022-12-11T01:10:34.167Z,22.35
2022-12-11T01:13:02.345Z,22.05
2022-12-11T01:15:30.191Z,19.58
2022-12-11T01:17:57.026Z,19.02
2022-12-11T01:20:24.800Z,19.75
2022-12-11T01:22:55.457Z,19.75
2022-12-11T01:25:21.910Z,19.67
2022-12-11T01:27:50.264Z,19.80
2022-12-11T01:30:19.026Z,19.27
2022-12-11T01:32:45.490Z,17.70
2022-12-11T01:35:12.391Z,19.17
2022-12-11T01:37:39.159Z,19.75
2022-12-11T01:40:06.469Z,20.77
2022-12-11T01:42:32.818Z,18.42
2022-12-11T01:45:17.298Z,19.40
2022-12-11T01:47:44.133Z,19.17
2022-12-11T01:50:11.129Z,19.52
2022-12-11T01:52:37.713Z,19.73
2022-12-11T01:55:04.289Z,19.98
2022-12-11T01:57:30.695Z,19.90
2022-12-11T01:59:57.228Z,21.05
2022-12-11T02:02:29.316Z,18.55
2022-12-11T02:04:55.758Z,20.13
2022-12-11T02:07:22.151Z,19.75
2022-12-11T02:09:48.751Z,19.75
2022-12-11T02:12:33.839Z,18.45
2022-12-11T02:15:23.591Z,14.05
2022-12-11T02:18:00.523Z,17.92
2022-12-11T02:20:36.427Z,17.65
2022-12-11T02:23:20.055Z,19.45
2022-12-11T02:25:51.104Z,18.08
2022-12-11T02:28:36.187Z,17.70
2022-12-11T02:31:10.378Z,18.75
2022-12-11T02:33:42.326Z,18.10
2022-12-11T02:36:09.787Z,17.90
2022-12-11T02:38:39.200Z,17.40
2022-12-11T02:41:07.409Z,17.00
2022-12-11T02:43:34.292Z,16.75
2022-12-11T02:46:03.137Z,17.85
2022-12-11T02:48:30.318Z,18.85
2022-12-11T02:50:57.838Z,17.20
2022-12-11T02:53:28.128Z,19.02
2022-12-11T02:56:01.946Z,18.30
2022-12-11T02:58:30.740Z,18.45
2022-12-11T03:00:57.168Z,19.88
2022-12-11T03:03:23.851Z,20.10
2022-12-11T03:05:50.254Z,18.92
2022-12-11T03:08:18.603Z,19.15
2022-12-11T03:10:45.884Z,18.85
2022-12-11T03:13:13.691Z,19.63
2022-12-11T03:15:40.008Z,19.30
2022-12-11T03:18:06.630Z,18.60
2022-12-11T03:20:35.850Z,19.15
2022-12-11T03:23:08.147Z,19.02
2022-12-11T03:25:57.766Z,19.48
2022-12-11T03:28:30.183Z,18.63
2022-12-11T03:30:56.977Z,18.98
2022-12-11T03:33:25.708Z,17.92
2022-12-11T03:35:54.122Z,19.45
2022-12-11T03:38:42.698Z,18.50
2022-12-11T03:41:10.020Z,17.98
2022-12-11T03:43:37.312Z,19.23
2022-12-11T03:46:05.188Z,16.67
2022-12-11T03:48:33.795Z,18.73
2022-12-11T03:51:02.155Z,16.90
2022-12-11T03:53:28.601Z,17.88
2022-12-11T03:55:56.528Z,18.00
2022-12-11T03:58:22.949Z,18.30
2022-12-11T04:00:49.366Z,17.42
2022-12-11T04:03:18.718Z,17.88
2022-12-11T04:05:49.435Z,17.65
2022-12-11T04:08:16.775Z,18.13
2022-12-11T04:10:43.542Z,16.50
2022-12-11T04:13:10.382Z,17.77
2022-12-11T04:15:37.481Z,17.10
2022-12-11T04:18:23.159Z,17.05
2022-12-11T04:23:53.247Z,20.52
2022-12-11T04:26:20.546Z,18.25
2022-12-11T04:28:48.095Z,19.35
2022-12-11T04:31:18.634Z,18.15
2022-12-11T04:33:46.387Z,18.52
2022-12-11T04:36:13.051Z,17.15
2022-12-11T04:38:39.501Z,18.95
2022-12-11T04:41:10.782Z,21.38
2022-12-11T04:43:37.140Z,15.65
2022-12-11T04:46:06.542Z,21.45
2022-12-11T04:48:33.361Z,16.23
2022-12-11T04:50:59.699Z,19.65
2022-12-11T04:53:26.236Z,18.00
2022-12-11T04:55:52.604Z,20.55
2022-12-11T04:58:18.997Z,19.95
2022-12-11T05:00:45.437Z,17.63
2022-12-11T05:03:11.835Z,15.75
2022-12-11T05:05:38.366Z,19.20
2022-12-11T05:08:04.981Z,17.65
2022-12-11T05:10:34.210Z,16.83
2022-12-11T05:13:03.297Z,16.70
2022-12-11T05:15:29.639Z,15.10
2022-12-11T05:17:55.944Z,15.15
2022-12-11T05:20:22.383Z,14.02
2022-12-11T05:22:48.728Z,15.18
2022-12-11T05:25:15.171Z,15.52
2022-12-11T05:27:41.513Z,15.48
2022-12-11T05:30:10.335Z,15.75
2022-12-11T05:32:36.742Z,14.40
2022-12-11T05:35:03.802Z,16.17
2022-12-11T05:37:30.218Z,15.00
2022-12-11T05:39:56.588Z,14.55
2022-12-11T05:42:27.128Z,14.23
2022-12-11T05:44:55.095Z,12.57
2022-12-11T05:47:21.449Z,15.25
2022-12-11T05:49:47.934Z,10.93
2022-12-11T05:52:14.434Z,11.85
2022-12-11T05:54:40.826Z,11.55
2022-12-11T05:57:07.159Z,13.50
2022-12-11T05:59:33.523Z,13.02
2022-12-11T06:01:59.925Z,12.73
2022-12-11T06:04:26.579Z,11.88
2022-12-11T06:06:55.995Z,12.57
2022-12-11T06:09:22.372Z,12.55
2022-12-11T06:11:48.679Z,13.45
2022-12-11T06:14:15.152Z,12.57
2022-12-11T06:16:41.573Z,12.00
2022-12-11T06:19:12.943Z,11.60
2022-12-11T06:21:39.341Z,13.98
2022-12-11T06:24:06.046Z,11.80
2022-12-11T06:26:32.613Z,11.50
2022-12-11T06:28:59.014Z,12.13
2022-12-11T06:31:25.415Z,11.95
2022-12-11T06:33:51.972Z,11.00
2022-12-11T06:36:19.536Z,11.30
2022-12-11T06:38:46.031Z,12.20
2022-12-11T06:41:12.800Z,12.25
2022-12-11T06:43:40.290Z,11.43
2022-12-11T06:46:07.257Z,10.77
2022-12-11T06:48:33.842Z,12.10
2022-12-11T06:51:00.661Z,10.77
2022-12-11T06:53:27.043Z,10.52
2022-12-11T06:55:53.375Z,11.40
2022-12-11T06:58:19.832Z,11.27
2022-12-11T07:00:46.349Z,10.70
2022-12-11T07:03:13.683Z,11.70
2022-12-11T07:05:40.031Z,11.70
2022-12-11T07:08:07.479Z,12.45
2022-12-11T07:10:33.986Z,13.82
2022-12-11T07:13:00.399Z,11.93
2022-12-11T07:15:26.882Z,13.07
2022-12-11T07:17:53.216Z,13.35
2022-12-11T07:20:19.655Z,13.10
2022-12-11T07:22:46.895Z,15.85
2022-12-11T07:25:13.665Z,21.42
2022-12-11T07:27:41.469Z,13.77
2022-12-11T07:30:08.224Z,17.58
2022-12-11T07:32:34.646Z,19.52
2022-12-11T07:35:01.001Z,12.75
2022-12-11T07:37:27.857Z,12.40
2022-12-11T07:39:54.181Z,16.40
2022-12-11T07:42:20.523Z,14.88
2022-12-11T07:44:46.893Z,12.20
2022-12-11T07:47:13.266Z,15.65
2022-12-11T07:49:39.589Z,24.58
2022-12-11T07:52:05.947Z,33.47
2022-12-11T07:54:34.760Z,24.02
2022-12-11T07:57:01.078Z,16.77
2022-12-11T07:59:27.436Z,17.52
2022-12-11T08:01:53.896Z,19.40
2022-12-11T08:04:20.332Z,12.45
2022-12-11T08:06:47.744Z,11.88
2022-12-11T08:09:21.132Z,13.70
2022-12-11T08:11:51.373Z,11.40
2022-12-11T08:14:18.123Z,12.93
2022-12-11T08:16:44.747Z,12.63
2022-12-11T08:19:11.758Z,12.88
2022-12-11T08:21:38.328Z,12.43
2022-12-11T08:24:04.771Z,11.77
2022-12-11T08:26:31.815Z,12.13
2022-12-11T08:28:58.640Z,11.48
2022-12-11T08:31:25.318Z,11.82
2022-12-11T08:33:51.718Z,12.00
2022-12-11T08:36:22.842Z,12.52
2022-12-11T08:38:49.861Z,11.85
2022-12-11T08:41:17.438Z,11.52
2022-12-11T08:43:44.229Z,11.70
2022-12-11T08:46:10.835Z,11.85
2022-12-11T08:48:38.006Z,11.15
2022-12-11T08:51:05.635Z,11.43
2022-12-11T08:53:32.839Z,11.77
2022-12-11T08:56:06.921Z,11.98
2022-12-11T08:58:33.389Z,11.38
2022-12-11T09:01:00.109Z,11.63
2022-12-11T09:03:26.548Z,12.38
2022-12-11T09:05:52.935Z,12.27
2022-12-11T09:08:19.266Z,11.45
2022-12-11T09:10:45.685Z,11.65
2022-12-11T09:13:12.048Z,11.27
2022-12-11T09:15:40.590Z,12.35
2022-12-11T09:18:07.127Z,11.55
2022-12-11T09:20:33.513Z,12.05
2022-12-11T09:23:01.046Z,11.57
2022-12-11T09:25:27.398Z,12.23
2022-12-11T09:27:53.810Z,12.75
2022-12-11T09:30:20.239Z,12.27
2022-12-11T09:32:46.601Z,12.38
2022-12-11T09:35:13.168Z,13.00
2022-12-11T09:37:39.716Z,12.88
2022-12-11T09:40:07.954Z,13.23
2022-12-11T09:42:53.049Z,13.00
2022-12-11T09:45:19.677Z,13.70
2022-12-11T09:47:50.166Z,13.90
2022-12-11T09:50:22.367Z,13.00
2022-12-11T09:52:54.953Z,13.43
2022-12-11T09:55:25.270Z,12.70
2022-12-11T09:58:00.551Z,14.07
2022-12-11T10:03:02.770Z,11.98
2022-12-11T10:05:37.162Z,11.65
2022-12-11T10:08:12.115Z,11.60
2022-12-11T10:10:43.363Z,12.75
2022-12-11T10:13:21.893Z,13.07
2022-12-11T10:16:01.099Z,12.43
2022-12-11T10:18:28.273Z,13.32
2022-12-11T10:20:54.965Z,12.27
2022-12-11T10:23:23.274Z,11.68
2022-12-11T10:25:57.067Z,11.98
2022-12-11T10:28:23.558Z,11.07
2022-12-11T10:31:01.504Z,13.18
2022-12-11T10:34:00.518Z,14.95
2022-12-11T10:36:30.998Z,16.48
2022-12-11T10:38:57.816Z,17.25
2022-12-11T10:41:27.702Z,15.88
2022-12-11T10:43:54.159Z,12.45
2022-12-11T10:46:20.565Z,13.27
2022-12-11T10:48:53.366Z,13.52
2022-12-11T10:51:21.270Z,14.63
2022-12-11T10:53:51.677Z,15.30
2022-12-11T10:56:24.920Z,12.85
2022-12-11T10:58:51.819Z,13.48
2022-12-11T11:01:21.312Z,18.10
2022-12-11T11:04:13.823Z,12.75
2022-12-11T11:06:40.234Z,12.48
2022-12-11T11:09:25.447Z,17.83
2022-12-11T11:11:51.900Z,18.00
2022-12-11T11:14:20.315Z,16.92
2022-12-11T11:16:47.994Z,13.82
2022-12-11T11:19:20.208Z,19.10
2022-12-11T11:21:48.942Z,13.27
2022-12-11T11:24:23.756Z,15.57
2022-12-11T11:27:12.377Z,14.73
2022-12-11T11:29:37.729Z,13.57
2022-12-11T11:32:24.354Z,14.10
2022-12-11T11:34:50.769Z,12.57
2022-12-11T11:37:45.616Z,11.75
2022-12-11T11:40:32.273Z,11.38
2022-12-11T11:43:07.268Z,11.20
2022-12-11T11:45:37.602Z,13.68
2022-12-11T11:48:28.482Z,12.27
2022-12-11T11:50:54.849Z,11.73
2022-12-11T11:53:26.945Z,11.75
2022-12-11T11:56:05.912Z,13.25
2022-12-11T11:58:40.132Z,11.68
2022-12-11T12:01:12.824Z,15.02
2022-12-11T12:03:39.223Z,13.40
2022-12-11T12:06:37.794Z,15.10
2022-12-11T12:09:20.725Z,12.40
2022-12-11T12:11:53.147Z,12.18
2022-12-11T12:14:51.070Z,11.63
2022-12-11T12:17:09.379Z,11.57
2022-12-11T12:19:38.779Z,10.43
2022-12-11T12:22:09.880Z,10.95
2022-12-11T12:24:54.743Z,12.38
2022-12-11T12:30:22.781Z,10.70
2022-12-11T12:32:49.938Z,9.82
2022-12-11T12:35:24.222Z,11.45
2022-12-11T12:37:50.543Z,10.90
2022-12-11T12:40:39.651Z,11.50
2022-12-11T12:43:17.568Z,12.32
2022-12-11T12:46:05.396Z,12.50
2022-12-11T12:48:32.615Z,13.10
2022-12-11T12:50:59.252Z,13.43
2022-12-11T12:53:28.448Z,14.35
2022-12-11T12:55:55.053Z,13.90
2022-12-11T12:58:27.624Z,13.85
2022-12-11T13:00:54.219Z,11.55
2022-12-11T13:03:29.191Z,9.30
2022-12-11T13:06:02.915Z,11.00
2022-12-11T13:08:33.065Z,11.40
2022-12-11T13:11:05.158Z,11.20
2022-12-11T13:13:33.899Z,11.07
2022-12-11T13:16:24.877Z,11.52
2022-12-11T13:18:51.445Z,12.60
2022-12-11T13:21:26.966Z,11.98
2022-12-11T13:23:53.950Z,11.85
2022-12-11T13:26:30.809Z,10.85
2022-12-11T13:28:58.278Z,12.30
2022-12-11T13:31:33.329Z,13.20
2022-12-11T13:36:31.333Z,10.90
2022-12-11T13:39:17.226Z,12.05
2022-12-11T13:41:45.809Z,10.90
2022-12-11T13:44:18.067Z,11.57
2022-12-11T13:46:44.486Z,12.40
2022-12-11T13:49:18.617Z,11.43
2022-12-11T13:51:51.369Z,11.95
2022-12-11T13:54:18.692Z,13.10
2022-12-11T13:56:59.386Z,13.13
2022-12-11T13:59:30.651Z,13.98
2022-12-11T14:01:58.822Z,13.80
2022-12-11T14:04:25.868Z,15.52
2022-12-11T14:06:52.227Z,16.83
2022-12-11T14:09:20.262Z,15.30
2022-12-11T14:11:49.870Z,15.55
2022-12-11T14:14:23.995Z,14.27
2022-12-11T14:16:51.594Z,15.00
2022-12-11T14:19:19.849Z,14.35
2022-12-11T14:22:00.635Z,14.90
2022-12-11T14:24:27.121Z,15.60
2022-12-11T14:26:54.285Z,15.88
2022-12-11T14:29:38.633Z,15.88
2022-12-11T14:32:06.561Z,16.23
2022-12-11T14:34:33.310Z,15.55
2022-12-11T14:37:00.331Z,12.60
2022-12-11T14:39:28.843Z,15.05
2022-12-11T14:41:55.199Z,14.45
2022-12-11T14:44:23.015Z,13.90
2022-12-11T14:46:54.551Z,14.43
2022-12-11T14:49:20.838Z,14.13
2022-12-11T14:51:48.336Z,15.43
2022-12-11T14:54:20.405Z,14.35
2022-12-11T14:56:47.357Z,13.73
2022-12-11T14:59:28.326Z,14.65
2022-12-11T15:02:02.155Z,13.23
2022-12-11T15:04:30.454Z,14.25
2022-12-11T15:06:57.059Z,14.68
2022-12-11T15:09:36.366Z,14.35
2022-12-11T15:12:11.225Z,15.38
2022-12-11T15:14:41.705Z,13.30
2022-12-11T15:17:12.409Z,15.73
2022-12-11T15:19:40.026Z,16.08
2022-12-11T15:22:08.477Z,14.85
2022-12-11T15:24:37.315Z,14.50
2022-12-11T15:27:03.788Z,14.98
2022-12-11T15:29:30.144Z,16.65
2022-12-11T15:32:00.698Z,13.63
2022-12-11T15:34:31.594Z,13.43
2022-12-11T15:36:57.904Z,13.95
2022-12-11T15:39:24.210Z,12.95
2022-12-11T15:41:50.571Z,14.02
2022-12-11T15:44:19.555Z,13.35
2022-12-11T15:46:46.058Z,14.25
2022-12-11T15:49:13.103Z,13.13
2022-12-11T15:51:42.826Z,13.82
2022-12-11T15:54:09.786Z,12.90
2022-12-11T15:56:36.134Z,12.60
2022-12-11T15:59:04.567Z,12.48
2022-12-11T16:01:30.935Z,12.40
2022-12-11T16:04:01.817Z,12.27
2022-12-11T16:06:31.156Z,12.25
2022-12-11T16:08:57.561Z,12.55
2022-12-11T16:11:23.919Z,13.80
2022-12-11T16:13:50.423Z,12.73
2022-12-11T16:16:16.810Z,12.63
2022-12-11T16:18:43.237Z,13.90
2022-12-11T16:21:09.558Z,12.82
2022-12-11T16:23:35.949Z,13.77
2022-12-11T16:26:09.552Z,13.13
2022-12-11T16:28:35.925Z,13.82
2022-12-11T16:31:02.985Z,14.93
2022-12-11T16:33:29.440Z,14.93
2022-12-11T16:35:55.841Z,15.27
2022-12-11T16:38:22.186Z,14.25
2022-12-11T16:40:48.551Z,14.38
2022-12-11T16:43:14.982Z,14.95
2022-12-11T16:45:42.865Z,15.05
2022-12-11T16:48:09.266Z,13.95
2022-12-11T16:50:39.197Z,14.20
2022-12-11T16:53:05.515Z,14.68
2022-12-11T16:55:31.892Z,14.10
2022-12-11T16:57:58.229Z,15.00
2022-12-11T17:00:25.654Z,16.25
2022-12-11T17:02:52.057Z,16.17
2022-12-11T17:05:18.566Z,15.75
2022-12-11T17:07:45.040Z,15.27
2022-12-11T17:10:11.763Z,14.45
2022-12-11T17:12:38.938Z,16.15
2022-12-11T17:15:05.733Z,17.33
2022-12-11T17:17:32.205Z,15.70
2022-12-11T17:19:58.574Z,15.95
2022-12-11T17:22:25.193Z,15.88
2022-12-11T17:24:51.583Z,15.57
2022-12-11T17:27:17.876Z,16.60
2022-12-11T17:29:49.444Z,16.75
2022-12-11T17:32:16.719Z,17.30
2022-12-11T17:34:43.232Z,16.48
2022-12-11T17:37:09.563Z,16.88
2022-12-11T17:39:36.955Z,17.58
2022-12-11T17:42:03.630Z,16.92
2022-12-11T17:44:31.137Z,16.52
2022-12-11T17:46:58.239Z,16.92
2022-12-11T17:49:24.637Z,16.90
2022-12-11T17:51:53.217Z,16.60
2022-12-11T17:54:23.827Z,20.25
2022-12-11T17:56:57.967Z,15.88
2022-12-11T17:59:24.487Z,18.63
2022-12-11T18:01:50.908Z,17.10
2022-12-11T18:04:17.414Z,17.20
2022-12-11T18:06:43.753Z,17.48
2022-12-11T18:09:10.302Z,17.52
2022-12-11T18:11:36.613Z,17.55
2022-12-11T18:14:03.448Z,16.95
2022-12-11T18:16:31.533Z,17.15
2022-12-11T18:18:58.309Z,18.05
2022-12-11T18:21:26.171Z,18.40
2022-12-11T18:23:52.657Z,19.05
2022-12-11T18:26:19.904Z,17.75
2022-12-11T18:28:47.341Z,18.88
2022-12-11T18:31:13.816Z,19.42
2022-12-11T18:33:41.743Z,19.27
2022-12-11T18:36:08.293Z,19.33
2022-12-11T18:38:34.714Z,19.65
2022-12-11T18:41:05.143Z,20.52
2022-12-11T18:43:31.519Z,21.00
2022-12-11T18:45:57.888Z,18.33
2022-12-11T18:48:24.276Z,20.15
2022-12-11T18:50:51.247Z,20.45
2022-12-11T18:53:18.487Z,21.60
2022-12-11T18:55:46.045Z,20.98
2022-12-11T18:58:13.383Z,20.52
2022-12-11T19:00:40.611Z,20.60
2022-12-11T19:03:07.353Z,20.75
2022-12-11T19:05:33.805Z,21.98
2022-12-11T19:08:00.429Z,20.83
2022-12-11T19:10:27.026Z,21.65
2022-12-11T19:12:53.840Z,21.08
2022-12-11T19:15:23.783Z,21.33
2022-12-11T19:17:50.770Z,20.60
2022-12-11T19:20:48.754Z,20.38
2022-12-11T19:23:03.554Z,22.27
2022-12-11T19:25:29.914Z,22.33
2022-12-11T19:27:57.017Z,21.67
2022-12-11T19:30:23.740Z,20.40
2022-12-11T19:32:50.111Z,20.52
2022-12-11T19:35:17.669Z,20.88
2022-12-11T19:37:44.014Z,21.27
2022-12-11T19:40:10.536Z,22.42
2022-12-11T19:42:36.892Z,22.48
2022-12-11T19:45:03.751Z,21.40
2022-12-11T19:47:30.083Z,21.50
2022-12-11T19:49:56.539Z,21.58
2022-12-11T19:52:22.915Z,21.27
2022-12-11T19:54:51.936Z,22.13
2022-12-11T19:57:18.317Z,21.00
2022-12-11T19:59:44.872Z,21.00
2022-12-11T20:02:11.704Z,20.88
2022-12-11T20:04:38.095Z,22.25
2022-12-11T20:07:04.487Z,21.17
2022-12-11T20:09:30.881Z,20.80
2022-12-11T20:11:57.245Z,20.73
2022-12-11T20:14:24.690Z,19.98
2022-12-11T20:19:39.431Z,20.50
2022-12-11T20:22:05.983Z,21.15
2022-12-11T20:24:32.326Z,19.70
2022-12-11T20:26:58.687Z,19.55
2022-12-11T20:29:24.990Z,19.70
2022-12-11T20:31:51.485Z,21.83
2022-12-11T20:34:18.051Z,20.52
2022-12-11T20:36:44.406Z,21.33
2022-12-11T20:39:10.804Z,19.88
2022-12-11T20:41:37.140Z,20.55
2022-12-11T20:44:03.654Z,19.75
2022-12-11T20:46:29.972Z,19.95
2022-12-11T20:48:58.452Z,20.13
2022-12-11T20:51:26.618Z,18.27
2022-12-11T20:53:58.479Z,20.38
2022-12-11T20:56:27.077Z,20.77
2022-12-11T20:58:53.487Z,20.65
2022-12-11T21:01:22.454Z,19.63
2022-12-11T21:03:49.437Z,21.20
2022-12-11T21:06:25.736Z,20.48
2022-12-11T21:08:52.578Z,20.73
2022-12-11T21:11:18.959Z,20.85
2022-12-11T21:13:45.442Z,21.02
2022-12-11T21:16:11.894Z,22.02
2022-12-11T21:18:38.580Z,21.98
2022-12-11T21:21:05.383Z,20.35
2022-12-11T21:23:32.322Z,21.90
2022-12-11T21:25:58.870Z,20.92
2022-12-11T21:28:33.580Z,23.13
2022-12-11T21:31:20.935Z,22.70
2022-12-11T21:33:48.027Z,23.45
2022-12-11T21:36:15.400Z,22.05
2022-12-11T21:38:42.191Z,21.55
2022-12-11T21:41:13.640Z,21.08
2022-12-11T21:44:00.436Z,23.35
2022-12-11T21:46:29.025Z,22.27
2022-12-11T21:48:55.538Z,22.55
2022-12-11T21:51:23.750Z,23.63
2022-12-11T21:53:50.344Z,23.80
2022-12-11T21:56:20.730Z,22.10
2022-12-11T21:58:47.538Z,23.02
2022-12-11T22:01:16.195Z,24.10
2022-12-11T22:03:42.645Z,23.00
2022-12-11T22:06:10.790Z,22.15
2022-12-11T22:08:37.231Z,22.10
2022-12-11T22:11:04.284Z,24.23
2022-12-11T22:13:31.030Z,22.25
2022-12-11T22:15:57.374Z,22.05
2022-12-11T22:18:27.010Z,22.35
2022-12-11T22:20:54.435Z,21.90
2022-12-11T22:23:20.910Z,21.65
2022-12-11T22:25:47.342Z,22.27
2022-12-11T22:28:14.071Z,23.35
2022-12-11T22:30:40.569Z,22.30
2022-12-11T22:33:07.608Z,23.05
2022-12-11T22:35:34.027Z,22.85
2022-12-11T22:38:00.457Z,23.30
2022-12-11T22:40:26.846Z,24.10
2022-12-11T22:42:53.311Z,21.65
2022-12-11T22:45:19.631Z,22.13
2022-12-11T22:47:45.954Z,22.65
2022-12-11T22:50:12.813Z,21.48
2022-12-11T22:52:39.256Z,22.65
2022-12-11T22:55:06.033Z,23.45
2022-12-11T22:57:32.456Z,23.52
2022-12-11T22:59:58.818Z,22.23
2022-12-11T23:02:25.224Z,22.35
2022-12-11T23:04:51.667Z,22.98
2022-12-11T23:07:18.027Z,22.55
2022-12-11T23:09:44.392Z,22.58
2022-12-11T23:12:10.766Z,22.38
2022-12-11T23:14:37.204Z,22.63
2022-12-11T23:17:03.643Z,24.25
2022-12-11T23:19:30.000Z,24.08
2022-12-11T23:21:57.999Z,21.63
2022-12-11T23:24:24.388Z,22.20
2022-12-11T23:26:50.779Z,22.75
2022-12-11T23:29:17.202Z,22.65
2022-12-11T23:31:43.551Z,22.88
2022-12-11T23:34:09.953Z,21.77
2022-12-11T23:36:36.545Z,20.00
2022-12-11T23:39:03.457Z,21.25
2022-12-11T23:41:32.137Z,23.10
2022-12-11T23:43:58.487Z,22.10
2022-12-11T23:46:25.207Z,22.27
2022-12-11T23:48:52.343Z,23.27
2022-12-11T23:51:19.615Z,22.17
2022-12-11T23:53:46.363Z,22.15
2022-12-11T23:56:26.584Z,22.63
2022-12-11T23:58:53.678Z,23.92
